»·PEaware :: SKY35 KORS-KEAT

SKY35 :: KORS-KEAT

FLIGHT INFORMATION

Flight Status: Arrived
Operator:
Sky High Charters
More flights by this operator :: More flights under this callsign
Pilot: Jake W. (30069)
Aircraft: BEECH AIRCRAFT BONANZA
(BE35)
More flights by this aircraft type
Origin: KORS Orcas Island
United States
Destination: KEAT Pangborn Meml
United States
More flights between these airports :: More routes between these airports
Route: +FEGBA2 FEGBA SEA V2 ELN V25 EAT
File this flight plan on PilotEdge
Remarks:
Altitude:
(Current/Filed)
9,000ft
Speed:
(Current/Filed)
260kts
Departed: 11-Aug-20 07:44 PM
Arrived: 11-Aug-20 08:39 PM
Distance/Time
Traveled:
134nm/0:55
Distance/Time
To Go:
Arrived

Flight Plot

Page will automatically refresh every two minutes.

Flight plan parsing failed; only flown route is shown


Map Options




Map Legend


Flown Route
Filed Route
Departure Airport
Arrival Airport
Navaid (VOR, NDB)
Fix

Horizontal Profiles

Position Reports

Time Latitude Longitude Heading Altitude Ground
Speed
11-Aug-20 19:26 48.703937 -122.909657 0 37ft 0kts
11-Aug-20 19:34 48.704123 -122.909706 292 37ft 0kts
11-Aug-20 19:35 48.704123 -122.909706 292 37ft 0kts
11-Aug-20 19:36 48.709706 -122.909368 233 23ft 0kts
11-Aug-20 19:36 48.709706 -122.909368 233 23ft 0kts
11-Aug-20 19:38 48.709706 -122.909368 233 23ft 0kts
11-Aug-20 19:39 48.709891 -122.910010 1 22ft 5kts
11-Aug-20 19:39 48.711605 -122.910007 359 19ft 6kts
11-Aug-20 19:40 48.711926 -122.910002 339 18ft 0kts
11-Aug-20 19:42 48.711926 -122.910002 339 18ft 0kts
11-Aug-20 19:42 48.712013 -122.910078 310 18ft 3kts
11-Aug-20 19:43 48.700884 -122.910522 182 219ft 130kts
11-Aug-20 19:44 48.661320 -122.907543 179 2920ft 146kts
11-Aug-20 19:45 48.621884 -122.911226 157 4884ft 183kts
11-Aug-20 19:46 48.579693 -122.914508 187 7409ft 156kts
11-Aug-20 19:47 48.534987 -122.912414 181 8969ft 179kts
11-Aug-20 19:48 48.478402 -122.883433 165 9015ft 238kts
11-Aug-20 19:49 48.413821 -122.847177 164 9036ft 253kts
11-Aug-20 19:50 48.347019 -122.809591 163 9056ft 257kts
11-Aug-20 19:51 48.279665 -122.771906 162 9063ft 259kts
11-Aug-20 19:52 48.211785 -122.734144 162 9063ft 260kts
11-Aug-20 19:53 48.143925 -122.696504 162 9063ft 260kts
11-Aug-20 19:54 48.076019 -122.658945 162 9063ft 260kts
11-Aug-20 19:55 48.008218 -122.621547 163 9062ft 260kts
11-Aug-20 19:56 47.939497 -122.583754 163 9011ft 265kts
11-Aug-20 19:57 47.869613 -122.545427 162 9002ft 269kts
11-Aug-20 19:58 47.798972 -122.506793 163 8996ft 270kts
11-Aug-20 19:59 47.728806 -122.468536 163 8987ft 266kts
11-Aug-20 20:00 47.659709 -122.430859 163 8976ft 262kts
11-Aug-20 20:01 47.591290 -122.393766 163 8973ft 261kts
11-Aug-20 20:02 47.523115 -122.356906 163 8973ft 261kts
11-Aug-20 20:03 47.454554 -122.319929 164 8974ft 261kts
11-Aug-20 20:04 47.417925 -122.226044 110 8974ft 275kts
11-Aug-20 20:05 47.394480 -122.117862 109 8970ft 275kts
11-Aug-20 20:06 47.371269 -122.009842 109 8971ft 275kts
11-Aug-20 20:07 47.347993 -121.902070 109 8973ft 275kts
11-Aug-20 20:08 47.324592 -121.794276 109 8975ft 276kts
11-Aug-20 20:09 47.301045 -121.686373 109 8973ft 276kts
11-Aug-20 20:10 47.277427 -121.578703 109 8972ft 276kts
11-Aug-20 20:11 47.253742 -121.471295 109 8973ft 277kts
11-Aug-20 20:12 47.229846 -121.363503 109 8950ft 277kts
11-Aug-20 20:13 47.205709 -121.255185 109 8905ft 280kts
11-Aug-20 20:14 47.181194 -121.145711 108 8880ft 282kts
11-Aug-20 20:15 47.156517 -121.036066 109 8879ft 282kts
11-Aug-20 20:16 47.131773 -120.926733 109 8879ft 281kts
11-Aug-20 20:17 47.106983 -120.817755 109 8879ft 281kts
11-Aug-20 20:18 47.112963 -120.718187 30 9327ft 255kts
11-Aug-20 20:19 47.158895 -120.642136 46 10459ft 239kts
11-Aug-20 20:20 47.200474 -120.568162 47 11471ft 243kts
11-Aug-20 20:21 47.246268 -120.486429 47 11465ft 271kts
11-Aug-20 20:22 47.295113 -120.398989 48 11433ft 280kts
11-Aug-20 20:23 47.344926 -120.309513 48 11408ft 278kts
11-Aug-20 20:24 47.391093 -120.226160 52 11402ft 249kts
11-Aug-20 20:25 47.399976 -120.132270 90 9665ft 229kts
11-Aug-20 20:26 47.400251 -120.038694 89 7411ft 230kts
11-Aug-20 20:27 47.397930 -119.948039 104 5777ft 199kts
11-Aug-20 20:28 47.365072 -119.874671 147 4837ft 230kts
11-Aug-20 20:29 47.310023 -119.848834 186 4992ft 196kts
11-Aug-20 20:30 47.260915 -119.873166 221 4828ft 191kts
11-Aug-20 20:31 47.233308 -119.942220 263 3932ft 201kts
11-Aug-20 20:32 47.245136 -120.014855 302 3916ft 178kts
11-Aug-20 20:33 47.286262 -120.059646 329 3627ft 201kts
11-Aug-20 20:34 47.336936 -120.098223 329 3018ft 188kts
11-Aug-20 20:35 47.364668 -120.147788 279 1872ft 149kts
11-Aug-20 20:36 47.382639 -120.183760 313 1542ft 101kts
11-Aug-20 20:37 47.398138 -120.206158 315 1251ft 62kts
11-Aug-20 20:38 47.400880 -120.208384 68 1251ft 1kts
11-Aug-20 20:39 47.401500 -120.206934 116 1251ft 0kts

Navigation Log

Ident Type
Flight plan parsing failed, navigation log unavailable